Aktuální počasí v Česku a ve světě - METAR

Seznam meteostanic umístěných nejčasteji na letišti v ČR a ve světě

Vyhledat místa podle abecedy:
A B C D E F G H I J K L M N O P Q R S T U V W X Y Z

Filtrovat:

ID stanice:
a/nebo
Název místa (fulltext):
 
Místo (ID)Naposledy načteno 
Wake Island (PWAK) 31.05.2020 04:58 UTC Zobrazit METAR
PWAK 310458Z AUTO 08012KT 9999 SCT021 SCT031 BKN055 29/23 A3001 RMK AO2 SLP169 T02860232 $
Warsaw (EPWA) 25.11.2020 17:00 UTC Zobrazit METAR
EPWA 251700Z 16005KT CAVOK 01/M02 Q1021 NOSIG
Washington (KIAD) 25.11.2020 16:52 UTC Zobrazit METAR
KIAD 251652Z 21010G23KT 10SM FEW090 SCT130 BKN230 12/02 A3025 RMK AO2 PK WND 20026/1556 SLP244 T01220017
Wellington (NZWN) 25.11.2020 17:00 UTC Zobrazit METAR
NZWN 251700Z AUTO 21001KT 7000 +DZ BKN045/// BKN060/// 15/14 Q1006 TEMPO 9999 NSW
Windhoek (FYWH) 25.11.2020 17:00 UTC Zobrazit METAR
FYWH 251700Z 26014KT CAVOK 31/M02 Q1019 NOSIG
Wroclaw (EPWR) 25.11.2020 17:00 UTC Zobrazit METAR
EPWR 251700Z 21004KT 170V230 CAVOK M01/M04 Q1021
Reklama

Počasí na Váš email

Emaily jsou bez reklamy a bez spamu



Odhlásit newsletter


Další české internetové stránky (nejen) o počasí najdete v katalogu TOPlist - weby o počasí nebo vyhledejte na internetu, co jste tu na 🌞 Slunečnu ⛅ zatím nenašli:
⭐ Přidat Slunečno.cz do oblíbených | 🏠 Nastavit Slunečno.cz jako HOMEPAGE

⬆️ Posunout stránku nahoru ⬆️
Reklama